Time;durP1;ratioP1;P1;durP2;ratioP2;P2;SDS_P1;SDS_P2;PMS_P1;PMS_P2;Temp;Humidity;BMP_temperature;BMP_pressure;BME280_temperature;BME280_humidity;BME280_pressure;Samples;Min_cycle;Max_cycle;Signal;HPM_P1;HPM_P2
2019/11/04 00:01:09;;;;;;;2.1;0.9;;;;;;;;;;;;;
2019/11/04 00:03:32;;;;;;;1.5;0.9;;;;;;;;;;;;;
2019/11/04 00:05:57;;;;;;;2.2;1;;;;;;;;;;;;;
2019/11/04 00:08:22;;;;;;;3.7;1.2;;;;;;;;;;;;;
2019/11/04 00:10:48;;;;;;;1.3;0.8;;;;;;;;;;;;;
2019/11/04 00:13:17;;;;;;;2.6;1.1;;;;;;;;;;;;;
2019/11/04 00:15:37;;;;;;;2.3;0.9;;;;;;;;;;;;;
2019/11/04 00:18:02;;;;;;;0.8;0.7;;;;;;;;;;;;;
2019/11/04 00:20:32;;;;;;;2.7;0.6;;;;;;;;;;;;;
2019/11/04 00:22:56;;;;;;;1.6;0.7;;;;;;;;;;;;;
2019/11/04 00:25:18;;;;;;;1;0.7;;;;;;;;;;;;;
2019/11/04 00:27:43;;;;;;;2.4;0.8;;;;;;;;;;;;;
2019/11/04 00:30:10;;;;;;;0.8;0.6;;;;;;;;;;;;;
2019/11/04 00:32:33;;;;;;;0.7;0.5;;;;;;;;;;;;;
2019/11/04 00:35:00;;;;;;;1.7;0.6;;;;;;;;;;;;;
2019/11/04 00:37:25;;;;;;;0.7;0.4;;;;;;;;;;;;;
2019/11/04 00:39:54;;;;;;;0.2;0.2;;;;;;;;;;;;;
2019/11/04 00:42:19;;;;;;;0.7;0.3;;;;;;;;;;;;;
2019/11/04 00:44:44;;;;;;;1.1;0.4;;;;;;;;;;;;;
2019/11/04 00:47:14;;;;;;;1.5;0.4;;;;;;;;;;;;;
2019/11/04 00:49:37;;;;;;;0.7;0.4;;;;;;;;;;;;;
2019/11/04 00:52:05;;;;;;;1;0.4;;;;;;;;;;;;;
2019/11/04 00:54:28;;;;;;;1.4;0.3;;;;;;;;;;;;;
2019/11/04 00:56:55;;;;;;;3.4;0.4;;;;;;;;;;;;;
2019/11/04 00:59:20;;;;;;;1.5;0.4;;;;;;;;;;;;;
2019/11/04 01:01:46;;;;;;;1.6;0.4;;;;;;;;;;;;;
2019/11/04 01:04:13;;;;;;;2.9;0.6;;;;;;;;;;;;;
2019/11/04 01:06:41;;;;;;;0.4;0.4;;;;;;;;;;;;;
2019/11/04 01:09:05;;;;;;;0.9;0.4;;;;;;;;;;;;;
2019/11/04 01:11:29;;;;;;;0.8;0.4;;;;;;;;;;;;;
2019/11/04 01:13:53;;;;;;;1.2;0.5;;;;;;;;;;;;;
2019/11/04 01:18:07;;;;;;;1;0.3;;;;;;;;;;;;;
2019/11/04 01:20:31;;;;;;;0.3;0.2;;;;;;;;;;;;;
2019/11/04 01:22:59;;;;;;;0.5;0.5;;;;;;;;;;;;;
2019/11/04 01:25:22;;;;;;;1.1;0.3;;;;;;;;;;;;;
2019/11/04 01:27:47;;;;;;;1.3;0.4;;;;;;;;;;;;;
2019/11/04 01:30:13;;;;;;;0.6;0.3;;;;;;;;;;;;;
2019/11/04 01:32:43;;;;;;;0.4;0.4;;;;;;;;;;;;;
2019/11/04 01:35:04;;;;;;;1.4;0.4;;;;;;;;;;;;;
2019/11/04 01:37:28;;;;;;;1.4;0.4;;;;;;;;;;;;;
2019/11/04 01:39:54;;;;;;;0.5;0.3;;;;;;;;;;;;;
2019/11/04 01:42:18;;;;;;;0.7;0.4;;;;;;;;;;;;;
2019/11/04 01:44:44;;;;;;;0.4;0.3;;;;;;;;;;;;;
2019/11/04 01:47:09;;;;;;;1;0.4;;;;;;;;;;;;;
2019/11/04 01:49:35;;;;;;;0.4;0.4;;;;;;;;;;;;;
2019/11/04 01:52:02;;;;;;;0.4;0.3;;;;;;;;;;;;;
2019/11/04 01:54:26;;;;;;;1.6;0.5;;;;;;;;;;;;;
2019/11/04 01:56:50;;;;;;;0.6;0.3;;;;;;;;;;;;;
2019/11/04 01:59:15;;;;;;;0.9;0.4;;;;;;;;;;;;;
2019/11/04 02:01:47;;;;;;;0.9;0.4;;;;;;;;;;;;;
2019/11/04 02:04:06;;;;;;;1.9;0.4;;;;;;;;;;;;;
2019/11/04 02:06:31;;;;;;;1.4;0.3;;;;;;;;;;;;;
2019/11/04 02:08:57;;;;;;;0.7;0.4;;;;;;;;;;;;;
2019/11/04 02:11:28;;;;;;;0.6;0.2;;;;;;;;;;;;;
2019/11/04 02:13:48;;;;;;;0.5;0.3;;;;;;;;;;;;;
2019/11/04 02:16:14;;;;;;;0.4;0.3;;;;;;;;;;;;;
2019/11/04 02:18:42;;;;;;;0.3;0.3;;;;;;;;;;;;;
2019/11/04 02:21:04;;;;;;;0.3;0.3;;;;;;;;;;;;;
2019/11/04 02:23:30;;;;;;;1.2;0.5;;;;;;;;;;;;;
2019/11/04 02:25:54;;;;;;;2.5;0.4;;;;;;;;;;;;;
2019/11/04 02:30:45;;;;;;;0.8;0.5;;;;;;;;;;;;;
2019/11/04 02:33:11;;;;;;;0.6;0.4;;;;;;;;;;;;;
2019/11/04 02:35:36;;;;;;;1.3;0.5;;;;;;;;;;;;;
2019/11/04 02:38:02;;;;;;;0.6;0.3;;;;;;;;;;;;;
2019/11/04 02:40:26;;;;;;;1;0.3;;;;;;;;;;;;;
2019/11/04 02:42:51;;;;;;;1.6;0.5;;;;;;;;;;;;;
2019/11/04 02:45:16;;;;;;;0.8;0.5;;;;;;;;;;;;;
2019/11/04 02:47:42;;;;;;;0.9;0.6;;;;;;;;;;;;;
2019/11/04 02:50:08;;;;;;;1.2;0.6;;;;;;;;;;;;;
2019/11/04 02:52:32;;;;;;;1;0.7;;;;;;;;;;;;;
2019/11/04 02:55:01;;;;;;;1.4;0.8;;;;;;;;;;;;;
2019/11/04 02:57:26;;;;;;;3.3;1.1;;;;;;;;;;;;;
2019/11/04 02:59:50;;;;;;;1.5;0.9;;;;;;;;;;;;;
2019/11/04 03:02:15;;;;;;;2.7;1.1;;;;;;;;;;;;;
2019/11/04 03:04:39;;;;;;;2;0.8;;;;;;;;;;;;;
2019/11/04 03:07:06;;;;;;;2.4;1.1;;;;;;;;;;;;;
2019/11/04 03:09:30;;;;;;;2;0.8;;;;;;;;;;;;;
2019/11/04 03:11:57;;;;;;;2.4;0.8;;;;;;;;;;;;;
2019/11/04 03:14:22;;;;;;;3.5;1.9;;;;;;;;;;;;;
2019/11/04 03:16:47;;;;;;;3.7;1.1;;;;;;;;;;;;;
2019/11/04 03:19:13;;;;;;;4.1;1;;;;;;;;;;;;;
2019/11/04 03:21:37;;;;;;;2.4;0.8;;;;;;;;;;;;;
2019/11/04 03:24:34;;;;;;;0.8;0.6;;;;;;;;;;;;;
2019/11/04 03:26:50;;;;;;;1.7;0.7;;;;;;;;;;;;;
2019/11/04 03:28:53;;;;;;;1.8;0.7;;;;;;;;;;;;;
2019/11/04 03:31:19;;;;;;;1.9;0.7;;;;;;;;;;;;;
2019/11/04 03:33:45;;;;;;;1.2;0.5;;;;;;;;;;;;;
2019/11/04 03:36:10;;;;;;;1.7;0.8;;;;;;;;;;;;;
2019/11/04 03:38:35;;;;;;;4.5;0.6;;;;;;;;;;;;;
2019/11/04 03:41:02;;;;;;;0.7;0.6;;;;;;;;;;;;;
2019/11/04 03:43:27;;;;;;;2.3;0.7;;;;;;;;;;;;;
2019/11/04 03:45:51;;;;;;;2.9;1.6;;;;;;;;;;;;;
2019/11/04 03:48:16;;;;;;;1.1;0.9;;;;;;;;;;;;;
2019/11/04 03:50:44;;;;;;;0.8;0.7;;;;;;;;;;;;;
2019/11/04 03:54:01;;;;;;;0.7;0.7;;;;;;;;;;;;;
2019/11/04 03:56:25;;;;;;;1.8;0.9;;;;;;;;;;;;;
2019/11/04 03:58:53;;;;;;;2;0.9;;;;;;;;;;;;;
2019/11/04 04:02:30;;;;;;;1.6;1.3;;;;;;;7.18;86.76953;918.9855;;;;
2019/11/04 04:05:11;;;;;;;9.1;3.8;;;;;;;7.14;86.66992;918.9963;;;;
2019/11/04 04:07:29;;;;;;;5.6;3.2;;;;;;;7.05;87.3877;919.0002;;;;
2019/11/04 04:09:57;;;;;;;7.2;4.6;;;;;;;6.86;88.31152;919.0292;;;;
2019/11/04 04:12:21;;;;;;;6.8;3.9;;;;;;;6.79;88.7832;919.0422;;;;
2019/11/04 04:14:46;;;;;;;3.8;2.3;;;;;;;7.01;88.36523;919.0797;;;;
2019/11/04 04:17:18;;;;;;;5;2.6;;;;;;;7.04;87.90723;919.032;;;;
2019/11/04 04:19:42;;;;;;;3.5;2.1;;;;;;;7.05;87.4668;919.0714;;;;
2019/11/04 04:22:13;;;;;;;5.5;1.9;;;;;;;7.04;87.36328;919.1174;;;;
2019/11/04 04:24:34;;;;;;;3.7;2;;;;;;;7;87.60547;919.0953;;;;
2019/11/04 04:26:58;;;;;;;1.8;1.1;;;;;;;6.91;88.52637;919.0541;;;;
2019/11/04 04:29:24;;;;;;;3.6;1.5;;;;;;;6.97;88.43555;918.9991;;;;
2019/11/04 04:31:56;;;;;;;3.8;1.7;;;;;;;6.94;88.2832;918.9819;;;;
2019/11/04 04:34:27;;;;;;;3.2;1.4;;;;;;;7.12;87.16504;918.8683;;;;
2019/11/04 04:36:51;;;;;;;3.2;1.5;;;;;;;7.25;86.64648;918.8752;;;;
2019/11/04 04:39:22;;;;;;;6.7;3.5;;;;;;;7.26;85.77734;918.9772;;;;
2019/11/04 04:41:54;;;;;;;3.7;2.3;;;;;;;7.23;85.8291;918.9853;;;;
2019/11/04 04:44:18;;;;;;;5.2;2.2;;;;;;;7;86.5166;918.979;;;;
2019/11/04 04:46:50;;;;;;;4.7;2.7;;;;;;;6.87;86.53613;919.0109;;;;
2019/11/04 04:49:12;;;;;;;2.7;1.6;;;;;;;6.8;86.71387;919.0105;;;;
2019/11/04 04:51:38;;;;;;;5.5;2.4;;;;;;;6.51;87.84277;919.0059;;;;
2019/11/04 04:54:04;;;;;;;5.9;2.8;;;;;;;6.51;88.00293;918.964;;;;
2019/11/04 04:56:32;;;;;;;5.5;2.9;;;;;;;6.63;87.11133;918.8638;;;;
2019/11/04 04:59:03;;;;;;;5.2;2.5;;;;;;;6.56;86.89258;918.8063;;;;
2019/11/04 05:01:29;;;;;;;3.9;1.9;;;;;;;6.24;88.21875;918.8975;;;;
2019/11/04 05:04:19;;;;;;;3.9;2.1;;;;;;;6.26;88.44824;918.8491;;;;
2019/11/04 05:06:45;;;;;;;3.9;2.4;;;;;;;6.35;87.80957;918.7972;;;;
2019/11/04 05:09:18;;;;;;;4.1;2.6;;;;;;;6.46;87.4375;918.8119;;;;
2019/11/04 05:14:39;;;;;;;4;2.1;;;;;;;6.4;86.68066;918.6894;;;;
2019/11/04 05:17:05;;;;;;;3.9;2.2;;;;;;;6.23;87.87598;918.7743;;;;
2019/11/04 05:19:36;;;;;;;3.6;2.8;;;;;;;6.13;88.56738;918.8117;;;;
2019/11/04 05:22:04;;;;;;;16.9;7.4;;;;;;;6.08;88.86328;918.8405;;;;
2019/11/04 05:24:32;;;;;;;36.6;24.5;;;;;;;5.92;89.86914;918.8339;;;;
2019/11/04 05:27:03;;;;;;;15.7;14.1;;;;;;;5.72;90.50488;918.8405;;;;
2019/11/04 05:29:34;;;;;;;2.7;1.9;;;;;;;5.72;90.65137;918.8129;;;;
2019/11/04 05:31:51;;;;;;;2.7;1.5;;;;;;;5.81;89.7666;918.9936;;;;
2019/11/04 05:34:20;;;;;;;5.5;2.8;;;;;;;5.84;89.26465;918.9753;;;;
2019/11/04 05:36:46;;;;;;;8.3;5.1;;;;;;;5.8;90.06836;918.9333;;;;
2019/11/04 05:39:15;;;;;;;62;43.5;;;;;;;5.78;90.86816;919.1119;;;;
2019/11/04 05:41:50;;;;;;;35.3;26;;;;;;;5.91;89.49609;919.033;;;;
2019/11/04 05:44:14;;;;;;;11.6;8.1;;;;;;;5.77;90.03027;919.1696;;;;
2019/11/04 05:46:37;;;;;;;15.9;11.9;;;;;;;5.89;88.85742;919.0454;;;;
2019/11/04 05:49:08;;;;;;;4.3;2.8;;;;;;;5.89;89.44531;919.058;;;;
2019/11/04 05:51:35;;;;;;;7.5;5.6;;;;;;;5.81;90.0498;919.142;;;;
2019/11/04 05:54:06;;;;;;;2.9;2.1;;;;;;;5.85;89.4248;919.085;;;;
2019/11/04 05:56:31;;;;;;;3.1;1.9;;;;;;;5.84;89.11816;919.0818;;;;
2019/11/04 05:58:58;;;;;;;2.9;1.7;;;;;;;5.81;89.54102;919.1231;;;;
2019/11/04 06:01:26;;;;;;;2.7;1.7;;;;;;;5.62;90.00977;919.1291;;;;
2019/11/04 06:04:14;;;;;;;3.6;1.8;;;;;;;5.68;90.15625;919.1407;;;;
2019/11/04 06:06:29;;;;;;;2;1.1;;;;;;;5.66;90.58301;919.1194;;;;
2019/11/04 06:08:54;;;;;;;2.6;1;;;;;;;5.64;90.44238;919.0895;;;;
2019/11/04 06:11:23;;;;;;;2.1;1.1;;;;;;;5.55;91.16602;919.118;;;;
2019/11/04 06:13:56;;;;;;;1;0.9;;;;;;;5.58;90.92773;919.1525;;;;
2019/11/04 06:16:28;;;;;;;2.1;1.2;;;;;;;5.53;91.11719;919.1385;;;;
2019/11/04 06:18:43;;;;;;;2.1;1.5;;;;;;;5.62;91.44336;919.1898;;;;
2019/11/04 06:21:08;;;;;;;4.8;2.9;;;;;;;5.73;90.83398;919.1334;;;;
2019/11/04 06:23:41;;;;;;;8.7;3.7;;;;;;;5.7;91.75391;919.173;;;;
2019/11/04 06:26:10;;;;;;;6.6;4;;;;;;;5.76;91.19141;919.0574;;;;
2019/11/04 06:28:34;;;;;;;5.6;4.1;;;;;;;5.92;89.84668;919.0669;;;;
2019/11/04 06:30:59;;;;;;;7.4;3.9;;;;;;;6.02;89.12109;919.1071;;;;
2019/11/04 06:33:28;;;;;;;8.9;5.3;;;;;;;5.9;88.97266;919.1191;;;;
2019/11/04 06:35:52;;;;;;;5.7;4.4;;;;;;;5.73;89.80859;919.0797;;;;
2019/11/04 06:38:17;;;;;;;3.6;2.4;;;;;;;5.7;89.23633;919.1658;;;;
2019/11/04 06:40:46;;;;;;;6.1;3.6;;;;;;;5.63;89.79688;919.1803;;;;
2019/11/04 06:43:19;;;;;;;6.6;4;;;;;;;5.65;90.27637;919.2481;;;;
2019/11/04 06:45:44;;;;;;;15.7;6.8;;;;;;;5.67;91.65625;919.256;;;;
2019/11/04 06:48:13;;;;;;;5;3.1;;;;;;;5.65;90.74902;919.215;;;;
2019/11/04 06:50:40;;;;;;;5.4;2.5;;;;;;;5.72;90.69629;919.2227;;;;
2019/11/04 06:53:10;;;;;;;4.7;2.2;;;;;;;5.86;90.36621;919.1655;;;;
2019/11/04 06:55:36;;;;;;;3.3;1.9;;;;;;;5.95;90.49609;919.1347;;;;
2019/11/04 06:58:06;;;;;;;3.8;2.3;;;;;;;6.22;90.22559;919.111;;;;
2019/11/04 07:00:38;;;;;;;3.1;2;;;;;;;6.33;89.59277;919.0772;;;;
2019/11/04 07:03:14;;;;;;;3.7;1.7;;;;;;;6.58;88.8418;919.0427;;;;
2019/11/04 07:06:10;;;;;;;3.7;1.6;;;;;;;6.97;87.98242;918.9974;;;;
2019/11/04 07:08:09;;;;;;;13.7;11.1;;;;;;;7.28;85.8584;918.9462;;;;
2019/11/04 07:10:37;;;;;;;14.3;10.2;;;;;;;7.59;84.84473;919.0121;;;;
2019/11/04 07:13:06;;;;;;;3.1;2.4;;;;;;;7.57;84.01367;919.0511;;;;
2019/11/04 07:15:33;;;;;;;4.6;2.2;;;;;;;7.73;82.84277;918.9958;;;;
2019/11/04 07:17:57;;;;;;;3.3;2.2;;;;;;;7.84;83.31738;919.0281;;;;
2019/11/04 07:20:23;;;;;;;3.6;2.3;;;;;;;7.83;81.94238;918.9703;;;;
2019/11/04 07:22:51;;;;;;;2.9;1.9;;;;;;;7.92;81.98242;918.9741;;;;
2019/11/04 07:25:14;;;;;;;4.2;2.9;;;;;;;8;81.58789;919.0865;;;;
2019/11/04 07:27:41;;;;;;;5.9;4.2;;;;;;;8.13;80.61426;919.0629;;;;
2019/11/04 07:30:22;;;;;;;7.9;5.2;;;;;;;8.18;81.60156;919.0242;;;;
2019/11/04 07:32:47;;;;;;;8.2;3.7;;;;;;;8.23;81.03027;919.077;;;;
2019/11/04 07:35:16;;;;;;;3.5;2.5;;;;;;;8.34;80.20996;919.0156;;;;
2019/11/04 07:37:43;;;;;;;4.8;2.9;;;;;;;8.61;80.38379;918.9709;;;;
2019/11/04 07:40:12;;;;;;;3.5;2.1;;;;;;;8.94;79.10449;918.9863;;;;
2019/11/04 07:42:38;;;;;;;2.6;2;;;;;;;9.38;77.52441;918.9731;;;;
2019/11/04 07:45:14;;;;;;;2.5;1.3;;;;;;;9.54;75.88867;918.8864;;;;
2019/11/04 07:48:12;;;;;;;2.9;1.6;;;;;;;9.79;75.66016;918.8636;;;;
2019/11/04 07:50:11;;;;;;;3.7;1.1;;;;;;;10.06;74.71387;918.8208;;;;
2019/11/04 07:52:38;;;;;;;3.5;0.9;;;;;;;10.37;73.41016;918.7958;;;;
2019/11/04 07:55:11;;;;;;;1.8;1;;;;;;;10.59;72.45313;918.7842;;;;
2019/11/04 07:57:35;;;;;;;1.2;0.9;;;;;;;10.59;71.21973;918.7611;;;;
2019/11/04 08:00:07;;;;;;;2.4;1.2;;;;;;;10.92;71.52539;918.7104;;;;
2019/11/04 08:02:33;;;;;;;3.1;1;;;;;;;10.93;68.41992;918.7148;;;;
2019/11/04 08:05:05;;;;;;;0.8;0.5;;;;;;;10.99;66.80664;918.6799;;;;
2019/11/04 08:07:31;;;;;;;1.9;0.6;;;;;;;11.03;69.47656;918.7891;;;;
2019/11/04 08:09:55;;;;;;;0.7;0.7;;;;;;;11.59;65.77734;918.7853;;;;
2019/11/04 08:12:26;;;;;;;1.6;1;;;;;;;11.86;65.00488;918.7542;;;;
2019/11/04 08:14:52;;;;;;;3;1.3;;;;;;;12.44;63.94434;918.7414;;;;
2019/11/04 08:17:26;;;;;;;4.2;2.5;;;;;;;12.74;62.47363;918.7111;;;;
2019/11/04 08:19:52;;;;;;;4.6;2.2;;;;;;;12.75;63.44043;918.7361;;;;
2019/11/04 08:22:20;;;;;;;6.8;3.5;;;;;;;13.18;62.96289;918.675;;;;
2019/11/04 08:24:46;;;;;;;3.7;2.4;;;;;;;13.87;61.6582;918.6276;;;;
2019/11/04 08:27:12;;;;;;;1.9;1.2;;;;;;;13.41;62.09961;918.655;;;;
2019/11/04 08:29:39;;;;;;;0.9;0.5;;;;;;;12.76;63.83203;918.6249;;;;
2019/11/04 08:32:05;;;;;;;3;1.5;;;;;;;11.93;64.09961;918.6926;;;;
2019/11/04 08:34:33;;;;;;;2.2;1.6;;;;;;;11.18;66.26367;918.603;;;;
2019/11/04 08:36:57;;;;;;;2;0.8;;;;;;;10.97;69.30566;918.7098;;;;
2019/11/04 08:39:21;;;;;;;2.4;1.2;;;;;;;10.88;70.67383;918.7081;;;;
2019/11/04 08:41:49;;;;;;;2.5;0.9;;;;;;;10.76;70.82617;918.6524;;;;
2019/11/04 08:44:12;;;;;;;2.9;1.2;;;;;;;10.69;70.90527;918.5824;;;;
2019/11/04 08:46:40;;;;;;;2;0.7;;;;;;;10.6;69.62305;918.5795;;;;
2019/11/04 08:49:18;;;;;;;2.2;0.8;;;;;;;10.61;70.24121;918.5181;;;;
2019/11/04 08:51:46;;;;;;;7.2;1.1;;;;;;;10.8;71.9873;918.4412;;;;
2019/11/04 08:54:15;;;;;;;3.5;0.8;;;;;;;10.88;70.53613;918.4111;;;;
2019/11/04 08:56:43;;;;;;;4;0.5;;;;;;;10.82;70.40234;918.4188;;;;
2019/11/04 08:59:06;;;;;;;2;0.4;;;;;;;10.85;72.75977;918.4102;;;;
2019/11/04 09:01:37;;;;;;;2.3;0.7;;;;;;;10.71;72.24609;918.4617;;;;
2019/11/04 09:04:01;;;;;;;2.6;0.5;;;;;;;10.58;70.8418;918.4359;;;;
2019/11/04 09:06:29;;;;;;;1.7;0.5;;;;;;;10.62;71.40918;918.4256;;;;
2019/11/04 09:09:00;;;;;;;1.1;0.6;;;;;;;10.84;72.11914;918.3364;;;;
2019/11/04 09:11:28;;;;;;;2.7;0.6;;;;;;;10.97;70.15234;918.3451;;;;
2019/11/04 09:14:00;;;;;;;1.6;0.6;;;;;;;10.92;70.53125;918.2247;;;;
2019/11/04 09:16:25;;;;;;;1.7;0.5;;;;;;;11;70.41797;918.1273;;;;
2019/11/04 09:19:02;;;;;;;0.9;0.5;;;;;;;11.03;71.7832;918.1021;;;;
2019/11/04 09:21:30;;;;;;;2.3;0.4;;;;;;;11.36;71.49512;918.0508;;;;
2019/11/04 09:24:07;;;;;;;8.2;1;;;;;;;11.53;70.11719;918.0767;;;;
2019/11/04 09:26:36;;;;;;;2.5;0.5;;;;;;;11.29;68.15625;918.1203;;;;
2019/11/04 09:29:03;;;;;;;4.5;0.5;;;;;;;10.91;71.36523;918.0601;;;;
2019/11/04 09:31:32;;;;;;;2.9;0.6;;;;;;;11.45;70.38867;918.1092;;;;
2019/11/04 09:34:05;;;;;;;2;0.7;;;;;;;11.81;68.15723;918.069;;;;
2019/11/04 09:36:39;;;;;;;3.3;0.6;;;;;;;12.01;67.82324;918.0916;;;;
2019/11/04 09:39:18;;;;;;;2.2;0.5;;;;;;;12.12;66.30371;918.0758;;;;
2019/11/04 09:41:54;;;;;;;1.4;0.5;;;;;;;12.53;63.87793;918.0184;;;;
2019/11/04 09:44:20;;;;;;;3.6;0.6;;;;;;;12.92;63.29297;917.998;;;;
2019/11/04 09:49:34;;;;;;;1.9;0.9;;;;;;;12.92;62.37305;917.9558;;;;
2019/11/04 09:52:13;;;;;;;3.3;0.8;;;;;;;12.47;63.93848;917.954;;;;
2019/11/04 09:54:37;;;;;;;0.7;0.6;;;;;;;12.36;63.95605;918.0092;;;;
2019/11/04 09:57:12;;;;;;;6.6;1.2;;;;;;;12.2;68.37988;918.0406;;;;
2019/11/04 09:59:47;;;;;;;2.1;0.9;;;;;;;12.58;66.95898;917.9883;;;;
2019/11/04 10:02:19;;;;;;;1.5;1;;;;;;;13.06;63.23145;917.9619;;;;
2019/11/04 10:04:43;;;;;;;4.3;0.8;;;;;;;13.47;63.28125;917.8376;;;;
2019/11/04 10:07:12;;;;;;;2;0.8;;;;;;;13.37;62.44922;917.6443;;;;
2019/11/04 10:09:47;;;;;;;2.5;0.8;;;;;;;13.37;63.08301;917.605;;;;
2019/11/04 10:12:13;;;;;;;3.5;0.8;;;;;;;13.24;62.43164;917.699;;;;
2019/11/04 10:14:45;;;;;;;2.3;0.7;;;;;;;13.21;61.99023;917.6342;;;;
2019/11/04 10:17:13;;;;;;;3.1;0.6;;;;;;;13.21;59.25684;917.5745;;;;
2019/11/04 10:20:18;;;;;;;2.5;0.8;;;;;;;13.13;59.66992;917.6002;;;;
2019/11/04 10:22:48;;;;;;;1;0.4;;;;;;;12.97;59.63672;917.5762;;;;
2019/11/04 10:25:19;;;;;;;0.4;0.2;;;;;;;13.08;61.13379;917.5273;;;;
2019/11/04 10:27:51;;;;;;;2.9;1;;;;;;;13.24;61.21387;917.4713;;;;
2019/11/04 10:30:15;;;;;;;4.5;1.2;;;;;;;12.8;62.13867;917.4241;;;;
2019/11/04 10:32:43;;;;;;;5.6;1.1;;;;;;;13.43;62.8252;917.2917;;;;
2019/11/04 10:35:09;;;;;;;2.3;0.7;;;;;;;13.68;59.7793;917.108;;;;
2019/11/04 10:37:33;;;;;;;2.9;0.7;;;;;;;13.7;62.3584;917.0854;;;;
2019/11/04 10:40:05;;;;;;;1.8;0.7;;;;;;;13.53;62.05957;917.0801;;;;
2019/11/04 10:42:35;;;;;;;2.5;0.7;;;;;;;13.49;60.44336;917.0712;;;;
2019/11/04 10:45:04;;;;;;;1.7;1;;;;;;;13.54;57.89844;916.9319;;;;
2019/11/04 10:47:33;;;;;;;1.9;0.9;;;;;;;13.65;59.68555;916.9144;;;;
2019/11/04 10:50:01;;;;;;;1;0.6;;;;;;;13.73;57.77441;916.8019;;;;
2019/11/04 10:52:30;;;;;;;1.1;0.6;;;;;;;13.57;56.54492;916.6894;;;;
2019/11/04 10:54:52;;;;;;;0.7;0.4;;;;;;;13.89;58.2793;916.6677;;;;
2019/11/04 10:57:28;;;;;;;2.1;0.6;;;;;;;14.03;55.9834;916.6584;;;;
2019/11/04 11:00:00;;;;;;;2;0.9;;;;;;;14.35;56.70508;916.5726;;;;
2019/11/04 11:02:31;;;;;;;1.3;0.7;;;;;;;14.56;56.0752;916.4077;;;;
2019/11/04 11:05:03;;;;;;;2;0.7;;;;;;;14.64;55.37012;916.2103;;;;
2019/11/04 11:07:27;;;;;;;1.4;0.5;;;;;;;14.6;57.56738;916.1135;;;;
2019/11/04 11:09:59;;;;;;;1.1;0.6;;;;;;;15.03;55.08594;916.1414;;;;
2019/11/04 11:12:29;;;;;;;2.7;0.7;;;;;;;14.79;56.03516;916.13;;;;
2019/11/04 11:15:03;;;;;;;2.6;0.6;;;;;;;15.3;56.06543;915.8702;;;;
2019/11/04 11:17:34;;;;;;;0.5;0.5;;;;;;;15.53;55.14844;915.8156;;;;
2019/11/04 11:20:01;;;;;;;2.1;0.4;;;;;;;16.12;51.09375;915.6071;;;;
2019/11/04 11:22:28;;;;;;;1.2;0.5;;;;;;;16.82;52.21777;915.5522;;;;
2019/11/04 11:24:56;;;;;;;1.3;0.6;;;;;;;17.64;47.9873;915.7226;;;;
2019/11/04 11:27:26;;;;;;;1.7;0.4;;;;;;;17.56;46.63281;915.8788;;;;
2019/11/04 11:29:52;;;;;;;0.7;0.4;;;;;;;18.21;43.41309;915.8284;;;;
2019/11/04 11:32:17;;;;;;;2;0.6;;;;;;;19.02;43.01465;915.8432;;;;
2019/11/04 11:34:48;;;;;;;1.4;0.6;;;;;;;21.86;37.63379;915.896;;;;
2019/11/04 11:37:14;;;;;;;1.3;0.7;;;;;;;25.28;31.32324;915.9669;;;;
2019/11/04 11:43:11;;;;;;;1.5;0.5;;;;;;;29.04;24.95508;915.8226;;;;
2019/11/04 11:45:42;;;;;;;2.3;0.6;;;;;;;30.65;22.61816;915.7576;;;;
2019/11/04 11:48:07;;;;;;;1.3;0.4;;;;;;;30.65;21.53125;915.9258;;;;
2019/11/04 11:50:37;;;;;;;0.7;0.3;;;;;;;30.8;22.60156;915.9949;;;;
2019/11/04 11:53:10;;;;;;;1.2;0.5;;;;;;;28.82;24.87109;915.9867;;;;
2019/11/04 11:55:35;;;;;;;1.3;0.5;;;;;;;26.02;28.02832;916.02;;;;
2019/11/04 11:58:08;;;;;;;3;0.4;;;;;;;22.89;31.88379;916.1058;;;;
2019/11/04 12:00:40;;;;;;;3.8;0.4;;;;;;;21.04;33.91504;916.0859;;;;
2019/11/04 12:03:05;;;;;;;0.6;0.3;;;;;;;18.89;36.36914;916.1127;;;;
2019/11/04 12:05:32;;;;;;;1.2;0.5;;;;;;;17.8;39.11133;916.1227;;;;
2019/11/04 12:08:12;;;;;;;2.4;0.5;;;;;;;17.88;40.37305;916.1053;;;;
2019/11/04 12:14:23;;;;;;;0.6;0.3;;;;;;;18.36;38.89355;916.1911;;;;
2019/11/04 12:16:51;;;;;;;1;0.5;;;;;;;18.34;44.1582;916.1942;;;;
2019/11/04 12:19:25;;;;;;;1;0.4;;;;;;;18.26;42.89453;916.2458;;;;
2019/11/04 12:21:54;;;;;;;1.7;0.6;;;;;;;18.01;46.69336;916.265;;;;
2019/11/04 12:24:21;;;;;;;2;0.5;;;;;;;17.75;47.26758;916.3594;;;;
2019/11/04 12:26:56;;;;;;;1.4;0.5;;;;;;;17.26;48.6416;916.3801;;;;
2019/11/04 12:29:23;;;;;;;5.2;0.5;;;;;;;16.97;50.11621;916.3981;;;;
2019/11/04 12:31:45;;;;;;;1.3;0.6;;;;;;;16.83;50.81836;916.4677;;;;
2019/11/04 12:34:18;;;;;;;1.7;0.4;;;;;;;16.66;51.79492;916.3937;;;;
2019/11/04 12:36:44;;;;;;;1.2;0.5;;;;;;;16.46;53.00879;916.4788;;;;
2019/11/04 12:39:15;;;;;;;0.7;0.6;;;;;;;16.47;52.43066;916.3976;;;;
2019/11/04 12:41:41;;;;;;;2.7;0.5;;;;;;;16.14;53.94141;916.3743;;;;
2019/11/04 12:44:17;;;;;;;1.7;0.5;;;;;;;15.79;55.02051;916.418;;;;
2019/11/04 12:47:18;;;;;;;1;0.5;;;;;;;15.89;54.98535;916.4998;;;;
2019/11/04 12:49:52;;;;;;;1.2;0.6;;;;;;;15.85;54.28613;916.6086;;;;
2019/11/04 12:52:25;;;;;;;0.6;0.5;;;;;;;15.89;54.21191;916.6344;;;;
2019/11/04 12:57:24;;;;;;;1.1;0.5;;;;;;;15.75;54.65625;916.7609;;;;
2019/11/04 12:59:54;;;;;;;0.8;0.5;;;;;;;15.7;55.14648;916.818;;;;
2019/11/04 13:02:25;;;;;;;1.5;0.5;;;;;;;15.56;55.5332;917.0433;;;;
2019/11/04 13:04:50;;;;;;;3.4;0.9;;;;;;;15.4;55.10938;917.2205;;;;
2019/11/04 13:07:17;;;;;;;2.7;1.1;;;;;;;15.15;56.38086;917.3055;;;;
2019/11/04 13:09:45;;;;;;;2;0.8;;;;;;;15.25;56.65918;917.2913;;;;
2019/11/04 13:12:09;;;;;;;3.7;0.6;;;;;;;15.28;56.83789;917.3483;;;;
2019/11/04 13:14:36;;;;;;;3.8;0.6;;;;;;;15.11;56.19043;917.3859;;;;
2019/11/04 13:17:14;;;;;;;3.9;1.3;;;;;;;15.08;57.90723;917.5528;;;;
2019/11/04 13:19:33;;;;;;;2.9;1.1;;;;;;;14.81;59.61328;917.6;;;;
2019/11/04 13:22:04;;;;;;;3;1.9;;;;;;;14.59;60.1123;917.5446;;;;
2019/11/04 13:24:36;;;;;;;1.9;0.7;;;;;;;14.3;60.08398;917.6096;;;;
2019/11/04 13:27:01;;;;;;;1.4;0.6;;;;;;;14.46;59.82813;917.5616;;;;
2019/11/04 13:29:26;;;;;;;4.5;0.9;;;;;;;14.58;60.19141;917.7787;;;;
2019/11/04 13:31:55;;;;;;;2.7;1.4;;;;;;;14.45;59.70215;917.8693;;;;
2019/11/04 13:34:20;;;;;;;2.6;1.5;;;;;;;14.4;58.8877;917.9053;;;;
2019/11/04 13:36:53;;;;;;;3.9;1;;;;;;;14.56;60.0166;917.9052;;;;
2019/11/04 13:39:17;;;;;;;1.2;0.7;;;;;;;14.71;58.6543;917.902;;;;
2019/11/04 13:41:42;;;;;;;2.4;0.9;;;;;;;14.78;57.52148;917.8987;;;;
2019/11/04 13:44:08;;;;;;;2.2;0.8;;;;;;;14.85;59.17969;917.9425;;;;
2019/11/04 13:47:17;;;;;;;2.1;0.8;;;;;;;14.68;58.31641;917.8895;;;;
2019/11/04 13:49:43;;;;;;;3.6;0.9;;;;;;;14.87;58.53711;917.8655;;;;
2019/11/04 13:52:08;;;;;;;1.7;0.8;;;;;;;14.99;58.53027;917.8647;;;;
2019/11/04 13:54:36;;;;;;;8.4;1.3;;;;;;;15.25;57.84863;917.8499;;;;
2019/11/04 13:57:01;;;;;;;5.5;1.2;;;;;;;15.39;57.82129;917.7665;;;;
2019/11/04 13:59:33;;;;;;;5.3;1.2;;;;;;;15.33;57.52441;917.8147;;;;
2019/11/04 14:02:00;;;;;;;4;1.1;;;;;;;15.36;59.3418;917.8269;;;;
2019/11/04 14:04:32;;;;;;;2.9;0.8;;;;;;;16.25;55.36816;917.7056;;;;
2019/11/04 14:06:57;;;;;;;1.6;0.9;;;;;;;19.31;48.01855;917.6454;;;;
2019/11/04 14:09:28;;;;;;;2.3;0.8;;;;;;;21.87;40.64551;917.4514;;;;
2019/11/04 14:12:02;;;;;;;1.7;0.9;;;;;;;23.54;37.8584;917.3433;;;;
2019/11/04 14:14:35;;;;;;;3.6;0.9;;;;;;;25.21;34.28125;917.3536;;;;
2019/11/04 14:17:21;;;;;;;5;1.2;;;;;;;25.85;32.69922;917.3901;;;;
2019/11/04 14:19:53;;;;;;;4;1.2;;;;;;;24.48;34.35547;917.4199;;;;
2019/11/04 14:22:18;;;;;;;3.5;1;;;;;;;23.35;35.96191;917.3975;;;;
2019/11/04 14:24:43;;;;;;;4.1;1.1;;;;;;;24.05;35.08789;917.2473;;;;
2019/11/04 14:27:15;;;;;;;2.6;0.8;;;;;;;24.07;34.04102;917.269;;;;
2019/11/04 14:29:46;;;;;;;0.8;0.5;;;;;;;23.45;34.72363;917.2386;;;;
2019/11/04 14:32:11;;;;;;;1.4;0.6;;;;;;;24.04;34.6748;917.2477;;;;
2019/11/04 14:34:40;;;;;;;1.9;0.8;;;;;;;24.06;34.91211;917.2748;;;;
2019/11/04 14:37:06;;;;;;;1.2;0.6;;;;;;;22.84;36.98828;917.197;;;;
2019/11/04 14:39:39;;;;;;;2.1;0.7;;;;;;;21.65;39.70117;917.1187;;;;
2019/11/04 14:42:01;;;;;;;2.3;1;;;;;;;21.37;40.95117;917.1499;;;;
2019/11/04 14:44:29;;;;;;;2.2;0.8;;;;;;;21.95;41.05078;917.3049;;;;
2019/11/04 14:47:03;;;;;;;9.7;1.5;;;;;;;21.19;42.45508;917.5139;;;;
2019/11/04 14:49:37;;;;;;;4.6;1.1;;;;;;;20.18;45.04297;917.5005;;;;
2019/11/04 14:52:09;;;;;;;3.6;1.1;;;;;;;19.32;46.0625;917.4464;;;;
2019/11/04 14:54:37;;;;;;;3.8;1.1;;;;;;;18.51;47.88379;917.4078;;;;
2019/11/04 14:57:12;;;;;;;9.9;1.5;;;;;;;18.09;50.34863;917.3371;;;;
2019/11/04 14:59:38;;;;;;;9.3;2.3;;;;;;;17.74;51.97949;917.3436;;;;
2019/11/04 15:02:05;;;;;;;9.5;2.3;;;;;;;17.34;52.60547;917.135;;;;
2019/11/04 15:04:35;;;;;;;4.6;1.5;;;;;;;16.93;53.00781;917.142;;;;
2019/11/04 15:07:13;;;;;;;3.4;1.2;;;;;;;16.68;54.23926;917.0859;;;;
2019/11/04 15:10:18;;;;;;;2.8;1;;;;;;;16.28;54.93164;917.1573;;;;
2019/11/04 15:12:12;;;;;;;6.6;1.2;;;;;;;15.95;57.64063;917.1448;;;;
2019/11/04 15:14:48;;;;;;;7.9;3.9;;;;;;;15.54;58.45215;917.2319;;;;
2019/11/04 15:17:19;;;;;;;3.8;1.1;;;;;;;15.05;59.25293;917.1517;;;;
2019/11/04 15:19:44;;;;;;;5.8;1.2;;;;;;;14.81;59.05957;917.2333;;;;
2019/11/04 15:22:24;;;;;;;4;1.3;;;;;;;14.75;60.53906;917.2363;;;;
2019/11/04 15:24:49;;;;;;;7.9;1.5;;;;;;;14.44;62.01465;917.275;;;;
2019/11/04 15:27:24;;;;;;;5;1.7;;;;;;;14.1;62.10547;917.3742;;;;
2019/11/04 15:29:53;;;;;;;4.7;1.6;;;;;;;13.85;62.99023;917.3379;;;;
2019/11/04 15:32:22;;;;;;;3.9;1.3;;;;;;;13.8;63.5127;917.4225;;;;
2019/11/04 15:34:54;;;;;;;9.7;1.6;;;;;;;13.67;64.35547;917.4713;;;;
2019/11/04 15:37:25;;;;;;;5.2;1.5;;;;;;;13.58;64.6543;917.4908;;;;
2019/11/04 15:39:55;;;;;;;6.2;1.4;;;;;;;13.5;65.82422;917.4147;;;;
2019/11/04 15:42:21;;;;;;;12.6;2.7;;;;;;;13.35;65.83594;917.4357;;;;
2019/11/04 15:44:53;;;;;;;6.3;1.9;;;;;;;13;65.50977;917.4386;;;;
2019/11/04 15:47:15;;;;;;;6.6;2.1;;;;;;;12.78;67.2666;917.3912;;;;
2019/11/04 15:49:45;;;;;;;6.2;2;;;;;;;12.67;67.01953;917.4061;;;;
2019/11/04 15:52:13;;;;;;;8;3.1;;;;;;;12.66;68.1416;917.46;;;;
2019/11/04 15:54:37;;;;;;;8.8;2.7;;;;;;;12.56;68.08105;917.5864;;;;
2019/11/04 15:57:14;;;;;;;6;2.5;;;;;;;12.44;67.86719;917.6543;;;;
2019/11/04 15:59:38;;;;;;;5.7;2.3;;;;;;;12.41;67.25488;917.7202;;;;
2019/11/04 16:02:19;;;;;;;3.6;1.7;;;;;;;12.35;68.4375;917.8137;;;;
2019/11/04 16:04:40;;;;;;;5.4;1.9;;;;;;;12.3;69.10645;917.9261;;;;
2019/11/04 16:07:06;;;;;;;19;8.4;;;;;;;12.22;69.31055;917.9495;;;;
2019/11/04 16:09:37;;;;;;;7.3;2.5;;;;;;;12.02;69.94434;917.9558;;;;